Latest Weather Observations for Kowanyama

IDQ60801

Issued at 8:02 pm EST Friday 24 February 2017 (issued every 30 minutes, with the page automatically refreshed every 10 minutes)

About weather observations | Map of weather stations | Latest weather observations for QLD | Other Formats
Station Details ID: 029038 Name: KOWANYAMA AIRPORT Lat: -15.48 Lon: 141.75 Height: 9.6 m
Data from the previous 72 hours. | See also: Recent months at Kowanyama
Date/Time
EST
Temp
°C
App
Temp
°C
Dew
Point
°C
Rel
Hum
%
Delta-T
°C
Wind Press
QNH
hPa
Press
MSL
hPa
Rain since
9am
mm
Dir  Spd
km/h
Gust
km/h
Spd
kts
Gust
kts
24/08:00pm 23.9 27.8 23.0 95 0.6 S 7 9 4 5 1011.0 1010.9 -
24/07:30pm 23.7 27.6 22.9 95 0.5 ESE 7 9 4 5 1010.5 1010.4 43.4
24/07:19pm 23.7 26.8 22.9 95 0.5 SSE 11 15 6 8 1011.0 1010.9 43.4
24/07:00pm 23.9 26.8 23.2 96 0.5 S 13 17 7 9 1010.5 1010.4 41.2
24/06:35pm 23.6 25.3 22.4 93 0.8 ENE 17 30 9 16 1010.6 1010.5 26.6
24/06:30pm 23.6 24.3 22.2 92 0.9 NE 22 43 12 23 1010.6 1010.5 22.2
24/06:20pm 24.6 26.8 23.2 92 0.9 ENE 17 32 9 17 1009.9 1009.8 12.8
24/06:09pm 25.4 27.3 23.5 89 1.3 NNE 19 30 10 16 1009.4 1009.3 3.2
24/06:00pm 26.5 28.5 24.0 86 1.7 NNE 20 33 11 18 1008.7 1008.6 0.4
24/05:30pm 30.6 34.8 25.4 74 3.7 WSW 13 15 7 8 1007.5 1007.4 0.0
24/05:00pm 32.4 36.4 26.2 70 4.4 WSW 17 24 9 13 1006.8 1006.7 0.0
24/04:30pm 32.2 36.3 25.8 69 4.6 W 15 22 8 12 1006.9 1006.8 0.0
24/04:00pm 31.1 34.0 25.4 71 4.0 W 20 28 11 15 1007.5 1007.4 0.0
24/03:30pm 32.3 35.9 25.6 67 4.8 W 17 24 9 13 1007.6 1007.5 0.0
24/03:00pm 33.8 38.7 24.7 59 6.4 SW 7 11 4 6 1008.2 1008.1 0.0
24/02:30pm 33.3 37.9 24.2 59 6.4 SSE 7 11 4 6 1008.7 1008.6 0.0
24/02:00pm 32.4 36.5 23.9 61 5.9 SSE 9 13 5 7 1009.4 1009.3 0.0
24/01:30pm 32.5 36.5 23.7 59 6.1 ESE 9 13 5 7 1009.7 1009.6 0.0
24/01:00pm 32.9 36.5 23.8 58 6.3 SSE 11 17 6 9 1010.1 1010.0 0.0
24/12:30pm 32.3 35.4 23.5 59 6.1 SE 13 17 7 9 1010.7 1010.6 0.0
24/12:00pm 32.0 36.4 23.8 62 5.7 ESE 7 13 4 7 1011.2 1011.1 0.0
24/11:30am 32.3 36.5 24.1 62 5.7 S 9 13 5 7 1011.7 1011.6 0.0
24/11:00am 32.1 36.5 24.4 63 5.4 SSE 9 15 5 8 1012.0 1011.9 0.0
24/10:30am 31.4 35.9 24.0 65 5.2 SSE 7 11 4 6 1012.4 1012.3 0.0
24/10:00am 31.4 35.8 23.5 63 5.5 SW 6 9 3 5 1012.6 1012.5 0.0
24/09:30am 30.9 35.9 24.8 70 4.3 N 7 9 4 5 1012.7 1012.6 0.0
24/09:00am 30.2 35.3 24.6 72 3.9 ENE 6 11 3 6 1012.8 1012.7 0.0
24/08:30am 28.8 33.7 24.4 77 3.1 SE 6 11 3 6 1012.7 1012.6 0.0
24/08:00am 27.5 32.0 23.9 81 2.5 SE 7 9 4 5 1012.5 1012.4 0.0
24/07:30am 26.6 31.3 24.3 87 1.6 S 7 9 4 5 1012.2 1012.1 0.0
24/07:00am 25.7 30.3 24.1 91 1.1 SSE 7 9 4 5 1011.9 1011.8 0.0
24/06:33am 25.5 30.3 24.1 92 1.0 S 6 7 3 4 1011.7 1011.6 0.0
24/06:30am 25.5 30.3 24.1 92 1.0 S 6 7 3 4 1011.7 1011.6 0.0
24/06:00am 25.8 31.1 24.4 92 1.0 S 4 6 2 3 1011.7 1011.6 0.0
24/05:51am 25.8 31.5 24.4 92 1.0 SE 2 6 1 3 1011.7 1011.6 0.0
24/05:30am 25.8 30.4 24.2 91 1.1 ESE 7 9 4 5 1011.4 1011.3 0.0
24/05:00am 25.6 30.6 23.8 90 1.2 WSW 4 7 2 4 1010.9 1010.8 0.0
24/04:45am 25.8 30.5 24.0 90 1.2 SSW 6 9 3 5 1010.9 1010.8 0.0
24/04:30am 25.9 29.6 23.9 89 1.4 SSW 11 15 6 8 1010.6 1010.5 0.0
24/04:21am 26.2 30.1 24.2 89 1.4 S 11 15 6 8 1010.3 1010.2 0.0
24/04:00am 26.7 30.7 24.4 87 1.6 SSE 11 17 6 9 1010.7 1010.6 0.0
24/03:48am 26.8 30.9 24.5 87 1.6 SSE 11 15 6 8 1010.6 1010.5 0.0
24/03:30am 27.1 32.5 25.5 91 1.1 SSE 7 9 4 5 1010.4 1010.3 0.0
24/03:12am 27.1 32.7 25.5 91 1.1 E 6 7 3 4 1010.6 1010.5 0.0
24/03:00am 27.0 32.6 25.4 91 1.1 ENE 6 9 3 5 1010.7 1010.6 0.0
24/02:30am 27.1 33.7 25.3 90 1.3 CALM 0 0 0 0 1010.6 1010.5 0.0
24/02:00am 27.0 31.9 25.2 90 1.3 NE 9 13 5 7 1011.0 1010.9 0.0
24/01:30am 27.1 32.5 25.1 89 1.4 SSW 6 7 3 4 1011.0 1010.9 0.0
24/01:00am 26.8 31.8 24.8 89 1.4 SSW 7 11 4 6 1011.4 1011.3 0.0
24/12:30am 27.1 32.0 24.7 87 1.7 SW 7 9 4 5 1011.7 1011.6 0.0
24/12:00am 27.1 32.2 24.6 86 1.7 SSW 6 7 3 4 1011.9 1011.8 0.0
 
Date/Time
EST
Temp
°C
App
Temp
°C
Dew
Point
°C
Rel
Hum
%
Delta-T
°C
Wind Press
QNH
hPa
Press
MSL
hPa
Rain since
9am
mm
Dir  Spd
km/h
Gust
km/h
Spd
kts
Gust
kts
23/11:30pm 27.1 32.0 24.6 86 1.7 SSW 7 9 4 5 1011.8 1011.7 0.0
23/11:00pm 27.3 31.8 24.6 85 1.9 SSW 9 11 5 6 1011.8 1011.7 0.0
23/10:30pm 27.4 32.4 24.8 86 1.8 SW 7 9 4 5 1011.7 1011.6 0.0
23/10:00pm 27.6 32.6 24.8 85 2.0 SW 7 11 4 6 1011.5 1011.4 0.0
23/09:30pm 27.7 32.6 24.7 84 2.1 SSW 7 11 4 6 1011.1 1011.0 0.0
23/09:00pm 27.9 32.6 24.9 84 2.1 SW 9 11 5 6 1010.8 1010.7 0.0
23/08:30pm 28.3 33.0 24.9 82 2.4 SW 9 11 5 6 1010.5 1010.4 0.0
23/08:00pm 28.4 33.0 24.8 81 2.5 WSW 9 13 5 7 1010.2 1010.1 0.0
23/07:30pm 28.9 33.5 24.7 78 2.9 W 9 11 5 6 1009.9 1009.8 0.0
23/07:00pm 31.0 35.9 24.4 68 4.6 S 6 11 3 6 1009.5 1009.4 0.0
23/06:30pm 32.7 36.3 23.1 57 6.6 SSE 9 15 5 8 1008.9 1008.8 0.0
23/06:00pm 33.4 36.9 22.8 53 7.3 ESE 9 17 5 9 1008.7 1008.6 0.0
23/05:30pm 33.3 36.9 22.4 52 7.5 E 7 11 4 6 1008.6 1008.5 0.0
23/05:00pm 33.5 37.4 22.6 53 7.5 NNE 6 13 3 7 1008.4 1008.3 0.0
23/04:30pm 33.5 38.0 22.9 53 7.3 N 4 11 2 6 1008.5 1008.4 0.0
23/04:00pm 33.3 37.4 23.3 55 6.9 ENE 7 11 4 6 1008.8 1008.7 0.0
23/03:30pm 33.4 36.5 22.2 52 7.7 ENE 9 13 5 7 1009.0 1008.9 0.0
23/03:00pm 33.4 38.0 24.8 60 6.1 NE 9 15 5 8 1009.3 1009.2 0.0
23/02:30pm 33.1 36.5 23.4 56 6.7 NE 11 17 6 9 1009.7 1009.6 0.0
23/02:00pm 33.2 37.0 23.5 56 6.7 NNE 9 17 5 9 1010.1 1010.0 0.0
23/01:30pm 32.7 36.0 23.9 60 6.1 N 13 19 7 10 1010.6 1010.5 0.0
23/01:00pm 32.4 35.7 23.9 61 5.9 NE 13 20 7 11 1011.0 1010.9 0.0
23/12:30pm 32.0 35.3 23.8 62 5.7 NNE 13 20 7 11 1011.4 1011.3 0.0
23/12:00pm 31.6 34.3 23.4 61 5.7 NNE 15 20 8 11 1011.8 1011.7 0.0
23/11:30am 31.5 34.3 23.6 63 5.5 ENE 15 20 8 11 1012.1 1012.0 0.0
23/11:00am 30.9 33.6 23.5 64 5.1 NE 15 22 8 12 1012.5 1012.4 0.0
23/10:30am 30.4 33.2 23.6 67 4.7 NE 15 22 8 12 1012.6 1012.5 0.0
23/10:00am 29.5 31.6 22.5 66 4.8 NE 15 24 8 13 1012.7 1012.6 0.0
23/09:30am 29.0 31.8 23.0 70 4.1 ENE 13 19 7 10 1012.9 1012.8 0.0
23/09:00am 28.4 32.0 23.1 73 3.6 NE 9 17 5 9 1012.9 1012.8 0.0
23/08:30am 27.3 30.0 22.9 77 3.0 NE 13 19 7 10 1012.5 1012.4 0.0
23/08:00am 26.4 29.6 23.1 82 2.2 ENE 11 15 6 8 1012.3 1012.2 0.0
23/07:30am 25.3 28.8 22.8 86 1.7 E 9 13 5 7 1012.0 1011.9 0.0
23/07:00am 24.3 27.7 22.7 91 1.1 E 9 13 5 7 1011.7 1011.6 0.0
23/06:30am 24.0 27.6 22.4 91 1.1 E 7 11 4 6 1011.8 1011.7 0.0
23/06:00am 24.1 27.4 22.5 91 1.1 E 9 15 5 8 1011.3 1011.2 0.0
23/05:30am 24.2 27.9 22.6 91 1.1 ENE 7 11 4 6 1011.1 1011.0 0.0
23/05:00am 24.3 27.7 22.7 91 1.1 E 9 13 5 7 1010.6 1010.5 0.0
23/04:30am 24.4 28.2 22.8 91 1.1 E 7 11 4 6 1010.6 1010.5 0.0
23/04:00am 24.5 28.4 22.9 91 1.1 ENE 7 13 4 7 1010.5 1010.4 0.0
23/03:30am 24.7 28.2 22.9 90 1.2 ENE 9 13 5 7 1010.4 1010.3 0.0
23/03:00am 24.9 28.1 23.0 89 1.3 ENE 11 19 6 10 1010.8 1010.7 0.0
23/02:30am 25.1 28.0 23.2 89 1.3 NE 13 20 7 11 1011.0 1010.9 0.0
23/02:00am 25.3 28.8 23.5 90 1.2 NE 11 17 6 9 1011.4 1011.3 0.0
23/01:30am 25.5 29.6 23.9 91 1.1 ENE 9 15 5 8 1011.3 1011.2 0.0
23/01:00am 25.6 29.7 24.0 91 1.1 NE 9 11 5 6 1011.5 1011.4 0.0
23/12:30am 25.6 30.0 23.8 90 1.2 ENE 7 11 4 6 1011.3 1011.2 0.0
23/12:00am 25.7 30.0 23.7 89 1.4 ENE 7 11 4 6 1011.7 1011.6 0.0
 
Date/Time
EST
Temp
°C
App
Temp
°C
Dew
Point
°C
Rel
Hum
%
Delta-T
°C
Wind Press
QNH
hPa
Press
MSL
hPa
Rain since
9am
mm
Dir  Spd
km/h
Gust
km/h
Spd
kts
Gust
kts
22/11:30pm 25.9 29.9 23.8 88 1.4 E 9 11 5 6 1012.3 1012.2 0.0
22/11:00pm 25.8 29.8 23.7 88 1.4 ENE 9 15 5 8 1012.4 1012.3 0.0
22/10:30pm 26.1 29.7 23.8 87 1.6 E 11 20 6 11 1012.5 1012.4 0.0
22/10:00pm 27.1 32.0 24.7 87 1.7 E 7 11 4 6 1011.8 1011.7 0.0
22/09:30pm 27.2 32.4 24.8 87 1.7 NNE 6 9 3 5 1011.2 1011.1 0.0
22/09:00pm 27.3 32.4 24.7 86 1.8 N 6 7 3 4 1010.4 1010.3 0.0
22/08:30pm 27.3 32.2 24.6 85 1.9 NE 7 9 4 5 1010.5 1010.4 0.0
22/08:00pm 27.5 32.4 24.4 83 2.2 NNE 6 7 3 4 1010.3 1010.2 0.0
22/07:30pm 27.8 32.6 24.4 82 2.4 NNW 7 11 4 6 1010.0 1009.9 0.0
22/07:00pm 28.2 32.3 24.0 78 2.9 NW 9 17 5 9 1009.8 1009.7 0.0
22/06:30pm 28.8 32.2 24.1 76 3.3 NW 13 24 7 13 1009.2 1009.1 0.0
22/06:00pm 28.8 32.0 23.7 74 3.5 NW 13 19 7 10 1008.8 1008.7 0.0
22/05:30pm 29.2 31.9 22.9 69 4.3 NW 13 20 7 11 1008.5 1008.4 0.0
22/05:00pm 30.0 32.9 23.2 67 4.7 NNW 13 24 7 13 1008.0 1007.9 0.0
22/04:30pm 31.3 34.2 23.9 64 5.1 NNW 15 22 8 12 1007.5 1007.4 0.0
22/04:00pm 31.8 34.9 25.4 69 4.5 N 19 30 10 16 1007.6 1007.5 0.0
22/03:30pm 32.8 35.8 25.3 64 5.3 NW 19 28 10 15 1007.6 1007.5 0.0
22/03:00pm 33.2 36.7 24.9 61 5.9 NW 15 22 8 12 1007.9 1007.8 0.0
22/02:30pm 32.8 35.8 23.4 57 6.5 N 13 19 7 10 1008.1 1008.0 0.0
22/02:00pm 33.2 36.1 23.2 55 6.9 N 13 22 7 12 1008.7 1008.6 0.0
22/01:30pm 32.8 36.4 24.3 61 6.0 N 13 20 7 11 1009.2 1009.1 0.0
22/01:00pm 32.5 35.2 23.4 58 6.3 NNE 15 22 8 12 1009.7 1009.6 0.0
22/12:30pm 31.8 34.2 23.6 62 5.7 N 17 26 9 14 1010.0 1009.9 0.0
22/12:00pm 31.6 34.7 24.2 65 5.2 NNE 15 22 8 12 1010.4 1010.3 0.0
22/11:30am 31.8 34.7 23.9 63 5.5 NNE 15 24 8 13 1010.6 1010.5 0.0
22/11:00am 31.2 34.3 23.6 64 5.3 NNE 13 20 7 11 1010.7 1010.6 0.0
22/10:30am 30.7 33.0 23.4 65 5.0 NE 17 26 9 14 1011.1 1011.0 0.0
22/10:00am 30.1 33.1 24.0 70 4.2 NNE 15 22 8 12 1011.5 1011.4 0.0
22/09:30am 29.5 32.4 23.9 72 3.9 NE 15 24 8 13 1011.7 1011.6 0.0
22/09:00am 29.0 32.3 23.9 74 3.5 NE 13 20 7 11 1011.5 1011.4 0.0
22/08:30am 28.0 31.3 23.2 75 3.3 NNE 11 19 6 10 1011.3 1011.2 0.0
22/08:00am 27.2 30.6 23.4 80 2.6 NE 11 17 6 9 1010.9 1010.8 0.0
22/07:30am 26.1 29.4 23.2 84 2.0 NE 11 17 6 9 1010.7 1010.6 0.0
22/07:00am 25.0 29.2 23.4 91 1.1 NE 7 11 4 6 1010.3 1010.2 0.0
22/06:30am 24.7 28.8 23.3 92 1.0 NE 7 9 4 5 1010.3 1010.2 0.0
22/06:00am 24.8 29.0 23.4 92 1.0 NNE 7 11 4 6 1010.3 1010.2 0.0
22/05:30am 24.8 29.0 23.4 92 1.0 NE 7 11 4 6 1010.2 1010.1 0.0
22/05:00am 24.9 29.0 23.3 91 1.1 NNE 7 9 4 5 1009.9 1009.8 0.0
22/04:30am 25.1 28.8 23.3 90 1.2 NE 9 11 5 6 1009.4 1009.3 0.0
22/04:00am 25.3 29.5 23.5 90 1.2 NNE 7 13 4 7 1009.4 1009.3 0.0
22/03:30am 25.4 29.2 23.5 89 1.3 NE 9 13 5 7 1009.2 1009.1 0.0
22/03:00am 25.5 29.8 23.6 89 1.3 NE 7 13 4 7 1009.2 1009.1 0.0
22/02:30am 25.5 29.3 23.4 88 1.4 NE 9 13 5 7 1009.3 1009.2 0.0
22/02:00am 25.9 29.4 23.6 87 1.6 NE 11 17 6 9 1009.6 1009.5 0.0
22/01:30am 26.0 29.7 23.9 88 1.4 NE 11 17 6 9 1010.1 1010.0 0.0
22/01:00am 26.0 29.6 23.7 87 1.6 ENE 11 17 6 9 1010.5 1010.4 0.0
22/12:30am 26.0 30.1 23.9 88 1.4 NE 9 15 5 8 1010.8 1010.7 0.0
22/12:00am 26.2 30.3 23.9 87 1.6 ENE 9 13 5 7 1011.1 1011.0 0.0
 
Date/Time
EST
Temp
°C
App
Temp
°C
Dew
Point
°C
Rel
Hum
%
Delta-T
°C
Wind Press
QNH
hPa
Press
MSL
hPa
Rain since
9am
mm
Dir  Spd
km/h
Gust
km/h
Spd
kts
Gust
kts
21/11:30pm 26.3 30.4 24.0 87 1.6 NE 9 11 5 6 1011.3 1011.2 0.0
21/11:00pm 26.2 30.4 24.1 88 1.4 NE 9 17 5 9 1011.1 1011.0 0.0
21/10:30pm 26.4 31.2 24.1 87 1.6 NE 6 7 3 4 1011.0 1010.9 0.0
21/10:00pm 26.5 31.3 24.2 87 1.6 NE 6 9 3 5 1011.0 1010.9 0.0
21/09:30pm 26.6 31.5 24.3 87 1.6 NE 6 7 3 4 1010.8 1010.7 0.0
21/09:00pm 27.1 33.4 24.7 87 1.7 CALM 0 4 0 2 1010.5 1010.4 0.0
21/08:30pm 27.5 33.7 24.6 84 2.0 CALM 0 0 0 0 1010.4 1010.3 0.0

Other Formats:

Comma delimited format used in spreadsheet applications
http://www.bom.gov.au/fwo/IDQ60801/IDQ60801.94268.axf

JavaScript Object Notation format (JSON) in row-major order
http://www.bom.gov.au/fwo/IDQ60801/IDQ60801.94268.json